sensor_id;sensor_type;location;lat;lon;timestamp;P1;durP1;ratioP1;P2;durP2;ratioP2
75847;SDS011;65750;47.540;19.090;2023-05-07T00:01:44;7.40;;;5.50;;
75847;SDS011;65750;47.540;19.090;2023-05-07T00:04:12;7.53;;;5.97;;
75847;SDS011;65750;47.540;19.090;2023-05-07T00:06:40;8.70;;;5.75;;
75847;SDS011;65750;47.540;19.090;2023-05-07T00:09:07;7.82;;;5.80;;
75847;SDS011;65750;47.540;19.090;2023-05-07T00:11:35;7.82;;;5.68;;
75847;SDS011;65750;47.540;19.090;2023-05-07T00:14:02;8.13;;;5.93;;
75847;SDS011;65750;47.540;19.090;2023-05-07T00:16:29;8.07;;;5.40;;
75847;SDS011;65750;47.540;19.090;2023-05-07T00:18:56;7.00;;;5.60;;
75847;SDS011;65750;47.540;19.090;2023-05-07T00:21:23;8.48;;;5.47;;
75847;SDS011;65750;47.540;19.090;2023-05-07T00:23:53;7.55;;;5.68;;
75847;SDS011;65750;47.540;19.090;2023-05-07T00:26:20;7.75;;;5.75;;
75847;SDS011;65750;47.540;19.090;2023-05-07T00:28:48;8.07;;;5.40;;
75847;SDS011;65750;47.540;19.090;2023-05-07T00:31:15;8.50;;;5.22;;
75847;SDS011;65750;47.540;19.090;2023-05-07T00:33:43;7.37;;;5.97;;
75847;SDS011;65750;47.540;19.090;2023-05-07T00:36:10;7.68;;;5.43;;
75847;SDS011;65750;47.540;19.090;2023-05-07T00:38:38;7.35;;;5.65;;
75847;SDS011;65750;47.540;19.090;2023-05-07T00:41:06;6.80;;;5.33;;
75847;SDS011;65750;47.540;19.090;2023-05-07T00:43:33;6.93;;;5.37;;
75847;SDS011;65750;47.540;19.090;2023-05-07T00:46:01;8.95;;;5.45;;
75847;SDS011;65750;47.540;19.090;2023-05-07T00:48:28;6.80;;;4.95;;
75847;SDS011;65750;47.540;19.090;2023-05-07T00:50:55;7.10;;;5.22;;
75847;SDS011;65750;47.540;19.090;2023-05-07T00:53:23;6.80;;;5.47;;
75847;SDS011;65750;47.540;19.090;2023-05-07T00:55:50;6.95;;;4.85;;
75847;SDS011;65750;47.540;19.090;2023-05-07T00:58:19;7.47;;;5.40;;
75847;SDS011;65750;47.540;19.090;2023-05-07T01:00:46;7.18;;;5.43;;
75847;SDS011;65750;47.540;19.090;2023-05-07T01:03:13;6.82;;;5.05;;
75847;SDS011;65750;47.540;19.090;2023-05-07T01:05:40;6.93;;;5.03;;
75847;SDS011;65750;47.540;19.090;2023-05-07T01:08:08;7.78;;;5.47;;
75847;SDS011;65750;47.540;19.090;2023-05-07T01:10:36;7.53;;;5.37;;
75847;SDS011;65750;47.540;19.090;2023-05-07T01:13:03;7.32;;;5.00;;
75847;SDS011;65750;47.540;19.090;2023-05-07T01:15:32;7.28;;;5.20;;
75847;SDS011;65750;47.540;19.090;2023-05-07T01:17:59;6.90;;;4.97;;
75847;SDS011;65750;47.540;19.090;2023-05-07T01:20:27;7.62;;;5.70;;
75847;SDS011;65750;47.540;19.090;2023-05-07T01:22:56;6.32;;;4.95;;
75847;SDS011;65750;47.540;19.090;2023-05-07T01:25:24;7.37;;;4.75;;
75847;SDS011;65750;47.540;19.090;2023-05-07T01:27:52;6.45;;;5.03;;
75847;SDS011;65750;47.540;19.090;2023-05-07T01:30:21;6.20;;;4.63;;
75847;SDS011;65750;47.540;19.090;2023-05-07T01:32:49;7.85;;;5.28;;
75847;SDS011;65750;47.540;19.090;2023-05-07T01:35:19;6.65;;;4.72;;
75847;SDS011;65750;47.540;19.090;2023-05-07T01:37:48;5.95;;;4.40;;
75847;SDS011;65750;47.540;19.090;2023-05-07T01:40:17;6.90;;;5.25;;
75847;SDS011;65750;47.540;19.090;2023-05-07T01:42:45;6.93;;;4.97;;
75847;SDS011;65750;47.540;19.090;2023-05-07T01:45:14;6.57;;;4.78;;
75847;SDS011;65750;47.540;19.090;2023-05-07T01:47:41;6.15;;;4.87;;
75847;SDS011;65750;47.540;19.090;2023-05-07T01:50:09;6.18;;;4.85;;
75847;SDS011;65750;47.540;19.090;2023-05-07T01:52:37;6.53;;;5.05;;
75847;SDS011;65750;47.540;19.090;2023-05-07T01:55:05;6.13;;;4.60;;
75847;SDS011;65750;47.540;19.090;2023-05-07T01:57:34;5.70;;;4.68;;
75847;SDS011;65750;47.540;19.090;2023-05-07T02:00:02;6.50;;;5.10;;
75847;SDS011;65750;47.540;19.090;2023-05-07T02:02:40;5.95;;;4.60;;
75847;SDS011;65750;47.540;19.090;2023-05-07T02:05:10;6.50;;;4.82;;
75847;SDS011;65750;47.540;19.090;2023-05-07T02:07:38;6.23;;;4.77;;
75847;SDS011;65750;47.540;19.090;2023-05-07T02:10:06;6.80;;;4.43;;
75847;SDS011;65750;47.540;19.090;2023-05-07T02:12:35;6.45;;;4.82;;
75847;SDS011;65750;47.540;19.090;2023-05-07T02:15:02;6.03;;;4.78;;
75847;SDS011;65750;47.540;19.090;2023-05-07T02:17:30;5.95;;;4.30;;
75847;SDS011;65750;47.540;19.090;2023-05-07T02:19:59;6.80;;;4.93;;
75847;SDS011;65750;47.540;19.090;2023-05-07T02:22:27;6.50;;;4.65;;
75847;SDS011;65750;47.540;19.090;2023-05-07T02:24:55;6.25;;;4.72;;
75847;SDS011;65750;47.540;19.090;2023-05-07T02:27:22;6.30;;;4.72;;
75847;SDS011;65750;47.540;19.090;2023-05-07T02:29:51;6.22;;;4.72;;
75847;SDS011;65750;47.540;19.090;2023-05-07T02:32:18;6.37;;;4.33;;
75847;SDS011;65750;47.540;19.090;2023-05-07T02:34:45;5.82;;;4.70;;
75847;SDS011;65750;47.540;19.090;2023-05-07T02:37:12;6.20;;;4.68;;
75847;SDS011;65750;47.540;19.090;2023-05-07T02:39:39;6.32;;;4.68;;
75847;SDS011;65750;47.540;19.090;2023-05-07T02:42:06;6.43;;;4.97;;
75847;SDS011;65750;47.540;19.090;2023-05-07T02:44:33;5.67;;;4.40;;
75847;SDS011;65750;47.540;19.090;2023-05-07T02:47:03;5.62;;;4.37;;
75847;SDS011;65750;47.540;19.090;2023-05-07T02:49:30;5.50;;;4.40;;
75847;SDS011;65750;47.540;19.090;2023-05-07T02:51:57;5.03;;;4.00;;
75847;SDS011;65750;47.540;19.090;2023-05-07T02:54:25;5.75;;;4.53;;
75847;SDS011;65750;47.540;19.090;2023-05-07T02:56:53;6.37;;;4.60;;
75847;SDS011;65750;47.540;19.090;2023-05-07T02:59:20;6.20;;;4.10;;
75847;SDS011;65750;47.540;19.090;2023-05-07T03:01:47;5.80;;;4.57;;
75847;SDS011;65750;47.540;19.090;2023-05-07T03:04:16;5.90;;;4.40;;
75847;SDS011;65750;47.540;19.090;2023-05-07T03:06:43;5.68;;;4.40;;
75847;SDS011;65750;47.540;19.090;2023-05-07T03:09:10;5.70;;;4.47;;
75847;SDS011;65750;47.540;19.090;2023-05-07T03:11:38;5.70;;;4.60;;
75847;SDS011;65750;47.540;19.090;2023-05-07T03:14:05;5.40;;;4.22;;
75847;SDS011;65750;47.540;19.090;2023-05-07T03:16:33;5.47;;;4.45;;
75847;SDS011;65750;47.540;19.090;2023-05-07T03:19:00;5.60;;;4.28;;
75847;SDS011;65750;47.540;19.090;2023-05-07T03:21:29;5.53;;;4.23;;
75847;SDS011;65750;47.540;19.090;2023-05-07T03:23:59;5.97;;;4.15;;
75847;SDS011;65750;47.540;19.090;2023-05-07T03:26:26;5.30;;;4.18;;
75847;SDS011;65750;47.540;19.090;2023-05-07T03:28:53;6.18;;;4.30;;
75847;SDS011;65750;47.540;19.090;2023-05-07T03:31:21;6.60;;;4.15;;
75847;SDS011;65750;47.540;19.090;2023-05-07T03:33:51;6.47;;;4.20;;
75847;SDS011;65750;47.540;19.090;2023-05-07T03:36:19;5.78;;;4.45;;
75847;SDS011;65750;47.540;19.090;2023-05-07T03:38:48;6.47;;;4.30;;
75847;SDS011;65750;47.540;19.090;2023-05-07T03:41:16;5.25;;;3.87;;
75847;SDS011;65750;47.540;19.090;2023-05-07T03:43:43;5.62;;;4.18;;
75847;SDS011;65750;47.540;19.090;2023-05-07T03:46:11;5.23;;;3.83;;
75847;SDS011;65750;47.540;19.090;2023-05-07T03:48:39;5.50;;;4.25;;
75847;SDS011;65750;47.540;19.090;2023-05-07T03:51:06;5.57;;;4.07;;
75847;SDS011;65750;47.540;19.090;2023-05-07T03:53:34;5.32;;;4.07;;
75847;SDS011;65750;47.540;19.090;2023-05-07T03:56:02;4.95;;;3.90;;
75847;SDS011;65750;47.540;19.090;2023-05-07T03:58:30;5.07;;;3.90;;
75847;SDS011;65750;47.540;19.090;2023-05-07T04:00:58;4.95;;;4.00;;
75847;SDS011;65750;47.540;19.090;2023-05-07T04:03:25;5.18;;;3.90;;
75847;SDS011;65750;47.540;19.090;2023-05-07T04:05:53;4.80;;;3.85;;
75847;SDS011;65750;47.540;19.090;2023-05-07T04:08:20;4.78;;;3.70;;
75847;SDS011;65750;47.540;19.090;2023-05-07T04:10:48;4.97;;;4.00;;
75847;SDS011;65750;47.540;19.090;2023-05-07T04:13:23;5.32;;;3.85;;
75847;SDS011;65750;47.540;19.090;2023-05-07T04:15:50;5.25;;;3.97;;
75847;SDS011;65750;47.540;19.090;2023-05-07T04:18:17;5.50;;;3.80;;
75847;SDS011;65750;47.540;19.090;2023-05-07T04:20:46;4.95;;;3.80;;
75847;SDS011;65750;47.540;19.090;2023-05-07T04:23:13;4.93;;;3.90;;
75847;SDS011;65750;47.540;19.090;2023-05-07T04:25:40;5.43;;;3.72;;
75847;SDS011;65750;47.540;19.090;2023-05-07T04:28:07;4.97;;;4.18;;
75847;SDS011;65750;47.540;19.090;2023-05-07T04:30:37;5.10;;;3.78;;
75847;SDS011;65750;47.540;19.090;2023-05-07T04:33:04;4.90;;;4.05;;
75847;SDS011;65750;47.540;19.090;2023-05-07T04:35:32;5.37;;;4.00;;
75847;SDS011;65750;47.540;19.090;2023-05-07T04:38:00;5.53;;;3.85;;
75847;SDS011;65750;47.540;19.090;2023-05-07T04:40:28;5.03;;;4.15;;
75847;SDS011;65750;47.540;19.090;2023-05-07T04:42:56;5.12;;;4.00;;
75847;SDS011;65750;47.540;19.090;2023-05-07T04:45:23;5.03;;;4.10;;
75847;SDS011;65750;47.540;19.090;2023-05-07T04:47:53;4.90;;;3.77;;
75847;SDS011;65750;47.540;19.090;2023-05-07T04:50:20;4.95;;;4.05;;
75847;SDS011;65750;47.540;19.090;2023-05-07T04:52:51;4.87;;;3.83;;
75847;SDS011;65750;47.540;19.090;2023-05-07T04:55:18;4.78;;;3.80;;
75847;SDS011;65750;47.540;19.090;2023-05-07T04:57:45;5.07;;;3.90;;
75847;SDS011;65750;47.540;19.090;2023-05-07T05:00:13;4.70;;;3.73;;
75847;SDS011;65750;47.540;19.090;2023-05-07T05:02:41;4.65;;;3.35;;
75847;SDS011;65750;47.540;19.090;2023-05-07T05:05:09;4.85;;;3.53;;
75847;SDS011;65750;47.540;19.090;2023-05-07T05:07:37;4.68;;;3.40;;
75847;SDS011;65750;47.540;19.090;2023-05-07T05:10:04;4.57;;;3.50;;
75847;SDS011;65750;47.540;19.090;2023-05-07T05:12:33;4.63;;;3.80;;
75847;SDS011;65750;47.540;19.090;2023-05-07T05:15:00;5.10;;;3.92;;
75847;SDS011;65750;47.540;19.090;2023-05-07T05:17:27;5.18;;;4.05;;
75847;SDS011;65750;47.540;19.090;2023-05-07T05:19:55;5.07;;;3.80;;
75847;SDS011;65750;47.540;19.090;2023-05-07T05:22:24;4.62;;;3.72;;
75847;SDS011;65750;47.540;19.090;2023-05-07T05:24:52;4.60;;;3.57;;
75847;SDS011;65750;47.540;19.090;2023-05-07T05:27:20;4.68;;;3.60;;
75847;SDS011;65750;47.540;19.090;2023-05-07T05:29:48;5.25;;;4.00;;
75847;SDS011;65750;47.540;19.090;2023-05-07T05:32:15;4.82;;;3.90;;
75847;SDS011;65750;47.540;19.090;2023-05-07T05:34:42;5.47;;;3.55;;
75847;SDS011;65750;47.540;19.090;2023-05-07T05:37:10;4.47;;;3.27;;
75847;SDS011;65750;47.540;19.090;2023-05-07T05:39:38;4.70;;;3.70;;
75847;SDS011;65750;47.540;19.090;2023-05-07T05:42:06;5.00;;;3.80;;
75847;SDS011;65750;47.540;19.090;2023-05-07T05:44:34;4.37;;;3.62;;
75847;SDS011;65750;47.540;19.090;2023-05-07T05:47:02;4.90;;;3.40;;
75847;SDS011;65750;47.540;19.090;2023-05-07T05:49:29;5.30;;;3.70;;
75847;SDS011;65750;47.540;19.090;2023-05-07T05:51:57;4.97;;;3.67;;
75847;SDS011;65750;47.540;19.090;2023-05-07T05:54:25;4.55;;;3.20;;
75847;SDS011;65750;47.540;19.090;2023-05-07T05:56:53;4.40;;;3.10;;
75847;SDS011;65750;47.540;19.090;2023-05-07T05:59:22;4.37;;;3.50;;
75847;SDS011;65750;47.540;19.090;2023-05-07T06:01:51;4.60;;;3.40;;
75847;SDS011;65750;47.540;19.090;2023-05-07T06:04:19;5.55;;;3.80;;
75847;SDS011;65750;47.540;19.090;2023-05-07T06:06:46;4.15;;;3.60;;
75847;SDS011;65750;47.540;19.090;2023-05-07T06:09:14;4.43;;;3.37;;
75847;SDS011;65750;47.540;19.090;2023-05-07T06:11:41;4.40;;;3.55;;
75847;SDS011;65750;47.540;19.090;2023-05-07T06:14:10;4.90;;;3.37;;
75847;SDS011;65750;47.540;19.090;2023-05-07T06:16:37;4.30;;;3.50;;
75847;SDS011;65750;47.540;19.090;2023-05-07T06:19:05;4.87;;;3.65;;
75847;SDS011;65750;47.540;19.090;2023-05-07T06:21:32;4.50;;;3.70;;
75847;SDS011;65750;47.540;19.090;2023-05-07T06:23:59;4.53;;;3.40;;
75847;SDS011;65750;47.540;19.090;2023-05-07T06:26:26;4.97;;;3.63;;
75847;SDS011;65750;47.540;19.090;2023-05-07T06:28:54;4.53;;;3.35;;
75847;SDS011;65750;47.540;19.090;2023-05-07T06:31:28;4.55;;;3.62;;
75847;SDS011;65750;47.540;19.090;2023-05-07T06:33:57;4.50;;;3.70;;
75847;SDS011;65750;47.540;19.090;2023-05-07T06:36:24;5.00;;;3.80;;
75847;SDS011;65750;47.540;19.090;2023-05-07T06:38:52;4.53;;;3.23;;
75847;SDS011;65750;47.540;19.090;2023-05-07T06:41:20;4.87;;;3.50;;
75847;SDS011;65750;47.540;19.090;2023-05-07T06:43:47;4.40;;;3.62;;
75847;SDS011;65750;47.540;19.090;2023-05-07T06:46:23;4.20;;;3.60;;
75847;SDS011;65750;47.540;19.090;2023-05-07T06:48:51;5.22;;;3.83;;
75847;SDS011;65750;47.540;19.090;2023-05-07T06:51:18;4.30;;;3.43;;
75847;SDS011;65750;47.540;19.090;2023-05-07T06:53:46;4.15;;;3.58;;
75847;SDS011;65750;47.540;19.090;2023-05-07T06:56:13;4.80;;;3.55;;
75847;SDS011;65750;47.540;19.090;2023-05-07T06:58:41;4.18;;;3.35;;
75847;SDS011;65750;47.540;19.090;2023-05-07T07:01:08;4.22;;;3.50;;
75847;SDS011;65750;47.540;19.090;2023-05-07T07:03:37;5.13;;;3.60;;
75847;SDS011;65750;47.540;19.090;2023-05-07T07:06:05;5.10;;;3.65;;
75847;SDS011;65750;47.540;19.090;2023-05-07T07:08:32;5.75;;;3.75;;
75847;SDS011;65750;47.540;19.090;2023-05-07T07:11:00;4.82;;;3.75;;
75847;SDS011;65750;47.540;19.090;2023-05-07T07:13:27;4.80;;;3.75;;
75847;SDS011;65750;47.540;19.090;2023-05-07T07:15:54;5.37;;;3.90;;
75847;SDS011;65750;47.540;19.090;2023-05-07T07:18:22;4.95;;;3.72;;
75847;SDS011;65750;47.540;19.090;2023-05-07T07:20:51;7.00;;;3.83;;
75847;SDS011;65750;47.540;19.090;2023-05-07T07:23:18;6.15;;;4.10;;
75847;SDS011;65750;47.540;19.090;2023-05-07T07:25:46;7.75;;;4.40;;
75847;SDS011;65750;47.540;19.090;2023-05-07T07:28:14;5.40;;;3.60;;
75847;SDS011;65750;47.540;19.090;2023-05-07T07:30:41;4.80;;;3.70;;
75847;SDS011;65750;47.540;19.090;2023-05-07T07:33:09;8.25;;;4.22;;
75847;SDS011;65750;47.540;19.090;2023-05-07T07:35:36;5.82;;;3.87;;
75847;SDS011;65750;47.540;19.090;2023-05-07T07:38:05;5.05;;;3.85;;
75847;SDS011;65750;47.540;19.090;2023-05-07T07:40:34;5.60;;;3.93;;
75847;SDS011;65750;47.540;19.090;2023-05-07T07:43:01;5.37;;;3.85;;
75847;SDS011;65750;47.540;19.090;2023-05-07T07:45:30;6.28;;;4.25;;
75847;SDS011;65750;47.540;19.090;2023-05-07T07:47:59;8.82;;;4.45;;
75847;SDS011;65750;47.540;19.090;2023-05-07T07:50:27;8.95;;;4.50;;
75847;SDS011;65750;47.540;19.090;2023-05-07T07:52:54;5.87;;;3.83;;
75847;SDS011;65750;47.540;19.090;2023-05-07T07:55:23;10.07;;;5.40;;
75847;SDS011;65750;47.540;19.090;2023-05-07T07:57:52;11.50;;;5.60;;
75847;SDS011;65750;47.540;19.090;2023-05-07T08:00:19;12.57;;;5.70;;
75847;SDS011;65750;47.540;19.090;2023-05-07T08:02:48;11.57;;;5.72;;
75847;SDS011;65750;47.540;19.090;2023-05-07T08:05:16;12.53;;;5.53;;
75847;SDS011;65750;47.540;19.090;2023-05-07T08:07:45;9.48;;;5.82;;
75847;SDS011;65750;47.540;19.090;2023-05-07T08:10:18;11.15;;;5.80;;
75847;SDS011;65750;47.540;19.090;2023-05-07T08:12:48;11.35;;;5.50;;
75847;SDS011;65750;47.540;19.090;2023-05-07T08:15:15;9.88;;;5.45;;
75847;SDS011;65750;47.540;19.090;2023-05-07T08:17:44;12.33;;;5.33;;
75847;SDS011;65750;47.540;19.090;2023-05-07T08:20:11;15.63;;;5.03;;
75847;SDS011;65750;47.540;19.090;2023-05-07T08:22:38;8.48;;;5.10;;
75847;SDS011;65750;47.540;19.090;2023-05-07T08:25:06;9.52;;;5.60;;
75847;SDS011;65750;47.540;19.090;2023-05-07T08:27:34;8.38;;;5.37;;
75847;SDS011;65750;47.540;19.090;2023-05-07T08:30:03;11.33;;;5.43;;
75847;SDS011;65750;47.540;19.090;2023-05-07T08:32:31;8.05;;;4.95;;
75847;SDS011;65750;47.540;19.090;2023-05-07T08:35:02;10.32;;;5.47;;
75847;SDS011;65750;47.540;19.090;2023-05-07T08:37:29;9.20;;;4.82;;
75847;SDS011;65750;47.540;19.090;2023-05-07T08:39:57;9.02;;;5.43;;
75847;SDS011;65750;47.540;19.090;2023-05-07T08:42:25;11.33;;;5.73;;
75847;SDS011;65750;47.540;19.090;2023-05-07T08:44:52;9.77;;;5.20;;
75847;SDS011;65750;47.540;19.090;2023-05-07T08:47:26;8.50;;;5.55;;
75847;SDS011;65750;47.540;19.090;2023-05-07T08:49:58;9.57;;;5.60;;
75847;SDS011;65750;47.540;19.090;2023-05-07T08:52:26;9.75;;;4.95;;
75847;SDS011;65750;47.540;19.090;2023-05-07T08:54:53;7.43;;;4.80;;
75847;SDS011;65750;47.540;19.090;2023-05-07T08:57:21;7.47;;;5.50;;
75847;SDS011;65750;47.540;19.090;2023-05-07T08:59:50;9.48;;;5.50;;
75847;SDS011;65750;47.540;19.090;2023-05-07T09:02:18;8.77;;;5.95;;
75847;SDS011;65750;47.540;19.090;2023-05-07T09:04:46;6.37;;;4.82;;
75847;SDS011;65750;47.540;19.090;2023-05-07T09:07:14;6.23;;;4.73;;
75847;SDS011;65750;47.540;19.090;2023-05-07T09:09:42;8.73;;;5.47;;
75847;SDS011;65750;47.540;19.090;2023-05-07T09:12:11;7.22;;;5.20;;
75847;SDS011;65750;47.540;19.090;2023-05-07T09:14:38;7.65;;;5.07;;
75847;SDS011;65750;47.540;19.090;2023-05-07T09:17:05;6.57;;;4.75;;
75847;SDS011;65750;47.540;19.090;2023-05-07T09:19:33;6.47;;;4.47;;
75847;SDS011;65750;47.540;19.090;2023-05-07T09:22:03;8.35;;;4.50;;
75847;SDS011;65750;47.540;19.090;2023-05-07T09:24:32;7.80;;;4.80;;
75847;SDS011;65750;47.540;19.090;2023-05-07T09:27:02;8.20;;;4.28;;
75847;SDS011;65750;47.540;19.090;2023-05-07T09:29:29;11.12;;;4.53;;
75847;SDS011;65750;47.540;19.090;2023-05-07T09:32:01;6.57;;;4.37;;
75847;SDS011;65750;47.540;19.090;2023-05-07T09:34:29;6.43;;;4.20;;
75847;SDS011;65750;47.540;19.090;2023-05-07T09:36:56;8.25;;;4.40;;
75847;SDS011;65750;47.540;19.090;2023-05-07T09:39:26;8.32;;;3.83;;
75847;SDS011;65750;47.540;19.090;2023-05-07T09:41:55;9.10;;;4.43;;
75847;SDS011;65750;47.540;19.090;2023-05-07T09:44:24;16.97;;;6.50;;
75847;SDS011;65750;47.540;19.090;2023-05-07T09:46:53;17.05;;;6.50;;
75847;SDS011;65750;47.540;19.090;2023-05-07T09:49:23;15.68;;;6.12;;
75847;SDS011;65750;47.540;19.090;2023-05-07T09:51:51;12.85;;;5.30;;
75847;SDS011;65750;47.540;19.090;2023-05-07T09:54:19;14.20;;;5.80;;
75847;SDS011;65750;47.540;19.090;2023-05-07T09:56:48;9.97;;;5.27;;
75847;SDS011;65750;47.540;19.090;2023-05-07T09:59:16;9.88;;;5.20;;
75847;SDS011;65750;47.540;19.090;2023-05-07T10:01:43;11.65;;;5.07;;
75847;SDS011;65750;47.540;19.090;2023-05-07T10:04:11;10.48;;;5.03;;
75847;SDS011;65750;47.540;19.090;2023-05-07T10:06:39;11.25;;;5.20;;
75847;SDS011;65750;47.540;19.090;2023-05-07T10:09:07;14.27;;;5.07;;
75847;SDS011;65750;47.540;19.090;2023-05-07T10:11:35;16.05;;;5.57;;
75847;SDS011;65750;47.540;19.090;2023-05-07T10:14:04;11.32;;;5.43;;
75847;SDS011;65750;47.540;19.090;2023-05-07T10:16:32;10.05;;;4.20;;
75847;SDS011;65750;47.540;19.090;2023-05-07T10:19:02;10.93;;;5.12;;
75847;SDS011;65750;47.540;19.090;2023-05-07T10:21:29;15.83;;;5.20;;
75847;SDS011;65750;47.540;19.090;2023-05-07T10:23:58;10.25;;;4.85;;
75847;SDS011;65750;47.540;19.090;2023-05-07T10:26:27;9.52;;;5.18;;
75847;SDS011;65750;47.540;19.090;2023-05-07T10:28:56;9.85;;;4.78;;
75847;SDS011;65750;47.540;19.090;2023-05-07T10:31:35;10.50;;;5.00;;
75847;SDS011;65750;47.540;19.090;2023-05-07T10:34:12;11.83;;;5.07;;
75847;SDS011;65750;47.540;19.090;2023-05-07T10:36:41;9.80;;;5.15;;
75847;SDS011;65750;47.540;19.090;2023-05-07T10:39:09;10.93;;;4.40;;
75847;SDS011;65750;47.540;19.090;2023-05-07T10:41:38;8.00;;;4.60;;
75847;SDS011;65750;47.540;19.090;2023-05-07T10:44:06;10.05;;;4.85;;
75847;SDS011;65750;47.540;19.090;2023-05-07T10:46:35;8.37;;;4.20;;
75847;SDS011;65750;47.540;19.090;2023-05-07T10:49:06;9.50;;;4.82;;
75847;SDS011;65750;47.540;19.090;2023-05-07T10:51:33;10.07;;;4.57;;
75847;SDS011;65750;47.540;19.090;2023-05-07T10:56:50;10.00;;;4.65;;
75847;SDS011;65750;47.540;19.090;2023-05-07T10:59:33;9.10;;;4.53;;
75847;SDS011;65750;47.540;19.090;2023-05-07T11:02:08;8.60;;;4.80;;
75847;SDS011;65750;47.540;19.090;2023-05-07T11:04:37;9.07;;;4.68;;
75847;SDS011;65750;47.540;19.090;2023-05-07T11:09:57;8.60;;;4.65;;
75847;SDS011;65750;47.540;19.090;2023-05-07T11:15:37;8.82;;;4.65;;
75847;SDS011;65750;47.540;19.090;2023-05-07T11:18:07;7.82;;;4.82;;
75847;SDS011;65750;47.540;19.090;2023-05-07T11:20:44;8.85;;;4.65;;
75847;SDS011;65750;47.540;19.090;2023-05-07T11:26:14;7.93;;;4.60;;
75847;SDS011;65750;47.540;19.090;2023-05-07T11:28:41;7.30;;;4.43;;
75847;SDS011;65750;47.540;19.090;2023-05-07T11:31:10;7.82;;;4.90;;
75847;SDS011;65750;47.540;19.090;2023-05-07T11:33:39;9.02;;;4.50;;
75847;SDS011;65750;47.540;19.090;2023-05-07T11:36:07;8.68;;;4.47;;
75847;SDS011;65750;47.540;19.090;2023-05-07T11:38:35;7.43;;;4.53;;
75847;SDS011;65750;47.540;19.090;2023-05-07T11:41:04;8.18;;;4.65;;
75847;SDS011;65750;47.540;19.090;2023-05-07T11:43:31;8.40;;;4.57;;
75847;SDS011;65750;47.540;19.090;2023-05-07T11:46:04;7.87;;;4.37;;
75847;SDS011;65750;47.540;19.090;2023-05-07T11:48:33;6.75;;;4.35;;
75847;SDS011;65750;47.540;19.090;2023-05-07T11:51:02;6.43;;;4.13;;
75847;SDS011;65750;47.540;19.090;2023-05-07T11:53:35;7.57;;;4.20;;
75847;SDS011;65750;47.540;19.090;2023-05-07T11:56:06;7.78;;;4.53;;
75847;SDS011;65750;47.540;19.090;2023-05-07T11:58:34;6.72;;;4.03;;
75847;SDS011;65750;47.540;19.090;2023-05-07T12:01:01;8.18;;;4.60;;
75847;SDS011;65750;47.540;19.090;2023-05-07T12:03:29;8.70;;;5.23;;
75847;SDS011;65750;47.540;19.090;2023-05-07T12:05:56;7.25;;;4.35;;
75847;SDS011;65750;47.540;19.090;2023-05-07T12:08:24;6.55;;;4.37;;
75847;SDS011;65750;47.540;19.090;2023-05-07T12:10:51;7.18;;;4.37;;
75847;SDS011;65750;47.540;19.090;2023-05-07T12:13:19;6.72;;;4.20;;
75847;SDS011;65750;47.540;19.090;2023-05-07T12:15:47;6.67;;;4.30;;
75847;SDS011;65750;47.540;19.090;2023-05-07T12:18:17;6.03;;;4.37;;
75847;SDS011;65750;47.540;19.090;2023-05-07T12:20:44;7.25;;;4.75;;
75847;SDS011;65750;47.540;19.090;2023-05-07T12:23:12;5.87;;;4.15;;
75847;SDS011;65750;47.540;19.090;2023-05-07T12:25:41;5.45;;;3.90;;
75847;SDS011;65750;47.540;19.090;2023-05-07T12:28:12;7.27;;;4.30;;
75847;SDS011;65750;47.540;19.090;2023-05-07T12:30:41;7.50;;;4.28;;
75847;SDS011;65750;47.540;19.090;2023-05-07T12:33:09;7.55;;;4.43;;
75847;SDS011;65750;47.540;19.090;2023-05-07T12:35:36;7.20;;;4.12;;
75847;SDS011;65750;47.540;19.090;2023-05-07T12:38:07;7.87;;;4.68;;
75847;SDS011;65750;47.540;19.090;2023-05-07T12:40:35;7.40;;;4.70;;
75847;SDS011;65750;47.540;19.090;2023-05-07T12:43:04;6.18;;;3.97;;
75847;SDS011;65750;47.540;19.090;2023-05-07T12:45:31;5.50;;;4.15;;
75847;SDS011;65750;47.540;19.090;2023-05-07T12:48:03;5.53;;;4.00;;
75847;SDS011;65750;47.540;19.090;2023-05-07T12:50:31;5.72;;;4.00;;
75847;SDS011;65750;47.540;19.090;2023-05-07T12:52:59;6.13;;;4.20;;
75847;SDS011;65750;47.540;19.090;2023-05-07T12:55:26;6.37;;;3.85;;
75847;SDS011;65750;47.540;19.090;2023-05-07T12:57:53;6.75;;;4.50;;
75847;SDS011;65750;47.540;19.090;2023-05-07T13:00:34;6.40;;;4.22;;
75847;SDS011;65750;47.540;19.090;2023-05-07T13:03:03;4.95;;;3.80;;
75847;SDS011;65750;47.540;19.090;2023-05-07T13:05:30;5.90;;;3.80;;
75847;SDS011;65750;47.540;19.090;2023-05-07T13:07:58;7.07;;;4.28;;
75847;SDS011;65750;47.540;19.090;2023-05-07T13:10:25;6.25;;;4.00;;
75847;SDS011;65750;47.540;19.090;2023-05-07T13:12:53;5.57;;;3.67;;
75847;SDS011;65750;47.540;19.090;2023-05-07T13:15:20;6.20;;;4.00;;
75847;SDS011;65750;47.540;19.090;2023-05-07T13:17:49;5.03;;;3.73;;
75847;SDS011;65750;47.540;19.090;2023-05-07T13:20:16;5.15;;;3.72;;
75847;SDS011;65750;47.540;19.090;2023-05-07T13:22:43;5.28;;;3.87;;
75847;SDS011;65750;47.540;19.090;2023-05-07T13:25:10;5.68;;;3.50;;
75847;SDS011;65750;47.540;19.090;2023-05-07T13:27:37;5.97;;;3.60;;
75847;SDS011;65750;47.540;19.090;2023-05-07T13:30:05;4.17;;;3.43;;
75847;SDS011;65750;47.540;19.090;2023-05-07T13:32:33;4.03;;;3.37;;
75847;SDS011;65750;47.540;19.090;2023-05-07T13:35:02;4.82;;;3.75;;
75847;SDS011;65750;47.540;19.090;2023-05-07T13:37:29;4.50;;;3.60;;
75847;SDS011;65750;47.540;19.090;2023-05-07T13:39:56;4.50;;;3.80;;
75847;SDS011;65750;47.540;19.090;2023-05-07T13:42:24;5.33;;;3.37;;
75847;SDS011;65750;47.540;19.090;2023-05-07T13:44:51;4.40;;;3.80;;
75847;SDS011;65750;47.540;19.090;2023-05-07T13:47:18;5.47;;;3.62;;
75847;SDS011;65750;47.540;19.090;2023-05-07T13:49:45;4.30;;;3.50;;
75847;SDS011;65750;47.540;19.090;2023-05-07T13:52:16;4.35;;;3.60;;
75847;SDS011;65750;47.540;19.090;2023-05-07T13:54:43;4.80;;;3.70;;
75847;SDS011;65750;47.540;19.090;2023-05-07T13:57:10;4.37;;;3.28;;
75847;SDS011;65750;47.540;19.090;2023-05-07T13:59:37;4.80;;;3.70;;
75847;SDS011;65750;47.540;19.090;2023-05-07T14:02:05;5.78;;;3.90;;
75847;SDS011;65750;47.540;19.090;2023-05-07T14:04:33;6.37;;;3.40;;
75847;SDS011;65750;47.540;19.090;2023-05-07T14:07:01;6.27;;;3.70;;
75847;SDS011;65750;47.540;19.090;2023-05-07T14:09:29;4.35;;;3.55;;
75847;SDS011;65750;47.540;19.090;2023-05-07T14:11:56;4.25;;;3.33;;
75847;SDS011;65750;47.540;19.090;2023-05-07T14:14:23;5.40;;;3.53;;
75847;SDS011;65750;47.540;19.090;2023-05-07T14:16:50;4.90;;;3.33;;
75847;SDS011;65750;47.540;19.090;2023-05-07T14:19:18;5.00;;;3.47;;
75847;SDS011;65750;47.540;19.090;2023-05-07T14:21:45;4.15;;;3.08;;
75847;SDS011;65750;47.540;19.090;2023-05-07T14:24:12;4.47;;;3.37;;
75847;SDS011;65750;47.540;19.090;2023-05-07T14:26:40;5.87;;;3.35;;
75847;SDS011;65750;47.540;19.090;2023-05-07T14:29:08;4.95;;;2.95;;
75847;SDS011;65750;47.540;19.090;2023-05-07T14:31:35;4.50;;;3.30;;
75847;SDS011;65750;47.540;19.090;2023-05-07T14:34:02;4.40;;;2.78;;
75847;SDS011;65750;47.540;19.090;2023-05-07T14:36:30;3.90;;;3.17;;
75847;SDS011;65750;47.540;19.090;2023-05-07T14:38:57;3.95;;;3.10;;
75847;SDS011;65750;47.540;19.090;2023-05-07T14:41:25;4.40;;;3.67;;
75847;SDS011;65750;47.540;19.090;2023-05-07T14:43:54;4.37;;;3.13;;
75847;SDS011;65750;47.540;19.090;2023-05-07T14:46:21;4.35;;;3.40;;
75847;SDS011;65750;47.540;19.090;2023-05-07T14:48:49;4.30;;;3.20;;
75847;SDS011;65750;47.540;19.090;2023-05-07T14:51:16;3.45;;;2.85;;